X  Fermer Données météorologiques d'aviation de Metar     EHAM Amsterdam Airport Schiphol
Température
9°C Température
4°C Point de rosée
71% Humidité



Vent
37 KM/H
23 MPH
10 M/S
20 KTS



160°
SSE
Conditions actuelles

Légère  Pluie Légère Pluie
Pression 998.98 (hPa) - 29.5 (inHg)
Visibilité 6 (mile) - 9.7 (km)
Aéroport
Code de l'aéroport EHAM

Emplacement: Amsterdam Airport Schiphol
Distance: 2 (km)

Metar:
EHAM 011255Z 16020KT 9999 -RA BKN028 09/04 Q0999 NOSIG

Temps: 01-03-2024 13:55 CET